Time;durP1;ratioP1;P1;durP2;ratioP2;P2;SDS_P1;SDS_P2;PMS_P1;PMS_P2;Temp;Humidity;BMP_temperature;BMP_pressure;BME280_temperature;BME280_humidity;BME280_pressure;Samples;Min_cycle;Max_cycle;Signal;HPM_P1;HPM_P2
2022/05/08 00:00:09;;;;;;;12.18;7.93;;;384.10;2329.60;;;;;;4883227;29;20371;-83
2022/05/08 00:02:35;;;;;;;16.58;8.35;;;409.60;2355.20;;;;;;4883166;29;20031;-84
2022/05/08 00:05:01;;;;;;;16.80;9.32;;;384.10;2329.60;;;;;;4882877;29;20091;-81
2022/05/08 00:07:27;;;;;;;17.33;9.10;;;359.30;2329.60;;;;;;4883337;29;20043;-82
2022/05/08 00:09:53;;;;;;;13.55;8.95;;;359.30;2329.60;;;;;;4886871;29;20036;-81
2022/05/08 00:12:19;;;;;;;10.75;8.23;;;359.30;2329.60;;;;;;4891869;29;20045;-82
2022/05/08 00:14:45;;;;;;;19.15;9.20;;;359.30;2329.60;;;;;;4900809;29;20522;-83
2022/05/08 00:17:13;;;;;;;14.32;9.23;;;359.30;2329.60;;;;;;4900187;29;20069;-85
2022/05/08 00:19:44;;;;;;;15.27;9.07;;;359.20;2329.60;;;;;;4898829;29;20526;-82
2022/05/08 00:22:14;;;;;;;14.35;10.27;;;359.30;2329.60;;;;;;4898628;29;20029;-82
2022/05/08 00:24:40;;;;;;;14.75;10.25;;;359.30;2329.60;;;;;;4898337;29;20031;-84
2022/05/08 00:27:07;;;;;;;19.15;9.63;;;359.30;2329.60;;;;;;4898509;29;20032;-82
2022/05/08 00:29:33;;;;;;;19.50;9.43;;;359.30;2329.60;;;;;;4899394;29;20058;-83
2022/05/08 00:31:59;;;;;;;14.77;10.00;;;359.00;2329.60;;;;;;4898178;29;20119;-82
2022/05/08 00:34:26;;;;;;;16.00;10.55;;;359.30;2329.60;;;;;;4898325;29;20440;-80
2022/05/08 00:36:52;;;;;;;16.10;8.73;;;359.10;2329.60;;;;;;4898231;29;20029;-81
2022/05/08 00:39:18;;;;;;;17.63;9.02;;;359.10;2329.60;;;;;;4897974;29;20037;-79
2022/05/08 00:41:46;;;;;;;16.27;9.57;;;359.20;2329.60;;;;;;4882664;29;20028;-84
2022/05/08 00:44:18;;;;;;;13.98;9.27;;;359.10;2329.60;;;;;;4898508;29;20383;-86
2022/05/08 00:46:44;;;;;;;14.82;9.70;;;358.90;2329.60;;;;;;4896824;29;20380;-80
2022/05/08 00:49:10;;;;;;;16.25;9.50;;;359.00;2329.60;;;;;;4897883;29;20069;-79
2022/05/08 00:51:36;;;;;;;15.70;9.88;;;359.10;2329.60;;;;;;4897996;29;20069;-81
2022/05/08 00:54:03;;;;;;;15.05;8.95;;;359.10;2329.60;;;;;;4897363;29;20091;-79
2022/05/08 00:56:30;;;;;;;13.57;9.20;;;384.00;2329.60;;;;;;4882323;29;20032;-80
2022/05/08 00:58:56;;;;;;;14.30;8.02;;;359.10;2329.60;;;;;;4881781;29;20502;-79
2022/05/08 01:01:22;;;;;;;11.60;7.93;;;384.00;2329.60;;;;;;4897529;29;20115;-78
2022/05/08 01:03:51;;;;;;;10.57;7.85;;;359.10;2329.60;;;;;;4897650;29;20487;-80
2022/05/08 01:06:18;;;;;;;12.50;7.80;;;359.10;2329.60;;;;;;4897483;29;20040;-80
2022/05/08 01:08:47;;;;;;;12.25;7.68;;;359.10;2329.60;;;;;;4897616;29;20032;-80
2022/05/08 01:11:13;;;;;;;16.83;9.82;;;359.10;2329.60;;;;;;4883015;29;20039;-79
2022/05/08 01:13:41;;;;;;;19.08;11.13;;;359.30;2329.60;;;;;;4900091;29;20028;-80
2022/05/08 01:16:12;;;;;;;23.10;11.05;;;359.30;2329.60;;;;;;4916422;29;20036;-79
2022/05/08 01:18:44;;;;;;;16.83;10.43;;;384.00;2329.60;;;;;;4900572;29;20393;-82
2022/05/08 01:21:14;;;;;;;16.75;10.38;;;359.20;2329.60;;;;;;4917671;29;20038;-81
2022/05/08 01:23:40;;;;;;;13.40;9.65;;;359.10;2329.60;;;;;;4900371;29;20032;-80
2022/05/08 01:26:07;;;;;;;16.33;9.02;;;359.20;2329.60;;;;;;4900680;29;20039;-79
2022/05/08 01:28:33;;;;;;;15.82;9.00;;;359.20;2329.60;;;;;;4900094;29;20039;-80
2022/05/08 01:31:00;;;;;;;12.18;8.07;;;359.00;2329.60;;;;;;4900574;29;20074;-81
2022/05/08 01:33:26;;;;;;;12.07;8.15;;;359.00;2329.60;;;;;;4900082;29;20028;-82
2022/05/08 01:35:58;;;;;;;16.27;7.72;;;359.00;2329.60;;;;;;4899983;29;20064;-81
2022/05/08 01:38:24;;;;;;;11.23;8.17;;;358.80;2329.60;;;;;;4900510;29;20035;-82
2022/05/08 01:41:03;;;;;;;11.82;7.70;;;359.00;2329.60;;;;;;4900221;29;20259;-80
2022/05/08 01:43:36;;;;;;;14.27;8.05;;;359.00;2329.60;;;;;;4916024;29;20056;-81
2022/05/08 01:46:09;;;;;;;;;;;359.00;2329.60;;;;;;4900563;29;20115;-81
2022/05/08 01:48:35;;;;;;;15.05;6.47;;;358.90;2329.60;;;;;;4899772;29;20279;-80
2022/05/08 01:51:02;;;;;;;12.23;6.80;;;358.90;2329.60;;;;;;4900439;29;20036;-82
2022/05/08 01:53:38;;;;;;;9.63;6.47;;;359.00;2329.60;;;;;;4900490;29;20482;-81
2022/05/08 01:56:07;;;;;;;11.85;7.13;;;358.90;2329.60;;;;;;4905158;29;20029;-80
2022/05/08 01:58:34;;;;;;;12.05;7.38;;;384.10;2329.60;;;;;;4913449;29;20088;-80
2022/05/08 02:01:04;;;;;;;11.07;7.13;;;358.90;2329.60;;;;;;4905335;29;20472;-80
2022/05/08 02:03:34;;;;;;;8.95;6.53;;;359.00;2329.60;;;;;;4903720;29;20032;-80
2022/05/08 02:06:00;;;;;;;10.27;6.75;;;358.90;2329.60;;;;;;4904073;29;20485;-78
2022/05/08 02:08:26;;;;;;;11.38;7.50;;;358.70;2329.60;;;;;;4903027;29;20032;-81
2022/05/08 02:10:52;;;;;;;12.18;7.40;;;358.90;2329.60;;;;;;4903522;29;20028;-80
2022/05/08 02:13:19;;;;;;;10.25;7.45;;;358.90;2329.60;;;;;;4866974;29;20061;-82
2022/05/08 02:15:45;;;;;;;9.75;6.80;;;358.80;2329.60;;;;;;4866586;29;20093;-78
2022/05/08 02:18:11;;;;;;;16.05;7.93;;;358.80;2329.60;;;;;;4865903;29;20057;-81
2022/05/08 02:20:41;;;;;;;8.57;6.95;;;358.90;2329.60;;;;;;4866326;29;20033;-81
2022/05/08 02:23:08;;;;;;;11.68;8.07;;;358.70;2329.60;;;;;;4865852;29;20538;-81
2022/05/08 02:25:38;;;;;;;11.75;8.02;;;358.70;2329.60;;;;;;4876146;29;20013;-79
2022/05/08 02:28:05;;;;;;;14.13;8.18;;;358.50;2329.60;;;;;;4885263;29;20084;-79
2022/05/08 02:30:31;;;;;;;13.80;6.95;;;358.50;2329.60;;;;;;4883622;29;20033;-80
2022/05/08 02:32:57;;;;;;;10.50;7.18;;;358.70;2329.60;;;;;;4901578;29;20052;-80
2022/05/08 02:35:24;;;;;;;10.38;6.10;;;358.60;2329.60;;;;;;4884101;29;20040;-77
2022/05/08 02:37:53;;;;;;;13.55;6.82;;;358.70;2329.60;;;;;;4877465;29;20205;-78
2022/05/08 02:40:25;;;;;;;13.15;6.15;;;358.80;2329.60;;;;;;4874255;29;20028;-81
2022/05/08 02:42:52;;;;;;;11.50;6.15;;;358.80;2329.60;;;;;;4901786;29;20104;-80
2022/05/08 02:45:19;;;;;;;11.95;6.22;;;358.70;2329.60;;;;;;4900328;29;20126;-79
2022/05/08 02:47:45;;;;;;;10.93;6.07;;;358.90;2329.60;;;;;;4899380;29;20375;-77
2022/05/08 02:50:11;;;;;;;11.85;7.30;;;358.70;2329.60;;;;;;4900181;29;20397;-82
2022/05/08 02:52:42;;;;;;;16.27;8.35;;;358.60;2329.60;;;;;;4899983;29;20037;-80
2022/05/08 03:01:23;;;;;;;15.95;7.85;;;333.50;2329.60;;;;;;4882475;29;20085;-77
2022/05/08 03:03:50;;;;;;;18.67;8.45;;;333.60;2329.60;;;;;;4865686;29;20029;-80
2022/05/08 03:06:16;;;;;;;14.75;7.47;;;333.60;2329.60;;;;;;4865447;29;20414;-80
2022/05/08 03:08:42;;;;;;;14.82;8.40;;;333.70;2329.60;;;;;;4865637;29;20040;-81
2022/05/08 03:11:27;;;;;;;10.18;6.72;;;358.40;2329.60;;;;;;4865211;29;20032;-80
2022/05/08 03:13:54;;;;;;;11.77;6.00;;;358.40;2329.60;;;;;;4883714;29;20120;-81
2022/05/08 03:16:22;;;;;;;9.50;5.55;;;333.60;2329.60;;;;;;4898448;29;20025;-80
2022/05/08 03:18:49;;;;;;;10.20;6.85;;;333.60;2329.60;;;;;;4902121;29;20032;-82
2022/05/08 03:21:15;;;;;;;14.82;9.15;;;333.50;2329.60;;;;;;4901169;29;20052;-80
2022/05/08 03:23:43;;;;;;;18.02;8.88;;;333.70;2329.60;;;;;;4902377;29;20071;-78
2022/05/08 03:26:09;;;;;;;12.15;7.90;;;333.40;2329.60;;;;;;4902375;29;20028;-79
2022/05/08 03:28:38;;;;;;;9.73;6.82;;;333.40;2329.60;;;;;;4902779;29;20088;-82
2022/05/08 03:31:04;;;;;;;10.23;6.10;;;333.40;2329.60;;;;;;4903066;29;20079;-77
2022/05/08 03:33:32;;;;;;;12.43;6.60;;;333.30;2329.60;;;;;;4902325;29;20028;-78
2022/05/08 03:35:59;;;;;;;10.40;6.35;;;333.20;2329.60;;;;;;4884284;29;20117;-81
2022/05/08 03:38:27;;;;;;;10.80;6.13;;;333.20;2329.60;;;;;;4883298;29;20148;-80
2022/05/08 03:40:54;;;;;;;9.38;6.40;;;333.00;2329.60;;;;;;4883474;29;20025;-78
2022/05/08 03:43:21;;;;;;;11.57;6.40;;;333.20;2329.60;;;;;;4883583;29;20150;-79
2022/05/08 03:45:49;;;;;;;8.90;5.63;;;333.30;2329.60;;;;;;4882063;29;20497;-82
2022/05/08 03:48:18;;;;;;;9.10;5.82;;;333.20;2329.60;;;;;;4882185;29;20471;-79
2022/05/08 03:50:44;;;;;;;11.75;5.88;;;333.20;2329.60;;;;;;4883121;29;20035;-81
2022/05/08 03:53:11;;;;;;;7.38;5.15;;;333.50;2329.60;;;;;;4882805;29;20475;-82
2022/05/08 03:55:38;;;;;;;9.23;5.20;;;333.40;2329.60;;;;;;4883062;29;20033;-79
2022/05/08 03:58:04;;;;;;;7.35;5.30;;;332.80;2329.60;;;;;;4883452;29;20483;-80
2022/05/08 04:00:30;;;;;;;8.40;5.57;;;333.40;2329.60;;;;;;4882949;29;20033;-80
2022/05/08 04:02:56;;;;;;;11.02;4.90;;;333.40;2329.60;;;;;;4882081;29;20463;-83
2022/05/08 04:05:26;;;;;;;11.25;5.72;;;333.40;2329.60;;;;;;4882964;29;20033;-81
2022/05/08 04:07:51;;;;;;;16.65;7.53;;;333.60;2329.60;;;;;;4881943;29;20625;-79
2022/05/08 04:10:17;;;;;;;16.25;8.05;;;333.20;2329.60;;;;;;4883258;29;20080;-79
2022/05/08 04:12:44;;;;;;;12.98;6.97;;;333.10;2329.60;;;;;;4869026;29;20526;-80
2022/05/08 04:16:15;;;;;;;10.43;6.50;;;333.20;2329.60;;;;;;4880514;29;20499;-80
2022/05/08 04:17:56;;;;;;;13.82;6.30;;;333.40;2329.60;;;;;;4898735;29;20044;-81
2022/05/08 04:20:22;;;;;;;8.80;7.07;;;333.30;2329.60;;;;;;4882749;29;20566;-80
2022/05/08 04:25:35;;;;;;;11.23;7.20;;;333.60;2329.60;;;;;;4882541;29;20085;-80
2022/05/08 04:28:01;;;;;;;12.98;7.80;;;333.50;2329.60;;;;;;4863775;29;20491;-77
2022/05/08 04:30:27;;;;;;;12.30;6.88;;;333.60;2329.60;;;;;;4863594;29;20041;-78
2022/05/08 04:32:59;;;;;;;11.32;6.75;;;333.60;2329.60;;;;;;4864081;29;20569;-81
2022/05/08 04:35:25;;;;;;;10.23;6.93;;;333.60;2329.60;;;;;;4863774;29;20036;-79
2022/05/08 04:37:51;;;;;;;13.90;8.70;;;358.40;2329.60;;;;;;4863659;29;20268;-81
2022/05/08 04:40:17;;;;;;;16.35;8.32;;;333.60;2329.60;;;;;;4863320;29;20029;-79
2022/05/08 04:42:43;;;;;;;13.00;8.38;;;358.40;2329.60;;;;;;4864068;29;20025;-82
2022/05/08 04:45:09;;;;;;;14.13;8.45;;;358.50;2329.60;;;;;;4863141;29;20081;-80
2022/05/08 04:47:38;;;;;;;11.80;8.07;;;358.90;2329.60;;;;;;4875025;29;20033;-81
2022/05/08 04:50:05;;;;;;;9.68;6.82;;;358.60;2329.60;;;;;;4876507;29;20036;-77
2022/05/08 04:52:31;;;;;;;9.85;6.75;;;358.60;2329.60;;;;;;4898229;29;20025;-79
2022/05/08 04:54:56;;;;;;;10.40;7.25;;;358.60;2329.60;;;;;;4897482;29;20032;-81
2022/05/08 04:57:22;;;;;;;10.95;7.13;;;358.60;2329.60;;;;;;4897711;29;20025;-81
2022/05/08 04:59:51;;;;;;;10.25;7.32;;;358.50;2329.60;;;;;;4897335;29;20159;-79
2022/05/08 05:02:17;;;;;;;13.70;7.47;;;333.70;2329.60;;;;;;4897599;29;20470;-80
2022/05/08 05:04:43;;;;;;;9.20;6.68;;;358.40;2329.60;;;;;;4896934;29;20043;-82
2022/05/08 05:07:14;;;;;;;10.50;6.65;;;333.70;2329.60;;;;;;4896668;29;20084;-77
2022/05/08 05:09:40;;;;;;;13.68;7.13;;;333.70;2329.60;;;;;;4897870;29;20032;-80
2022/05/08 05:12:06;;;;;;;18.17;13.13;;;333.70;2329.60;;;;;;4896178;29;20498;-81
2022/05/08 05:14:35;;;;;;;13.48;11.25;;;358.50;2329.60;;;;;;4897582;29;20386;-79
2022/05/08 05:17:02;;;;;;;15.55;9.73;;;358.50;2329.60;;;;;;4881769;29;20475;-79
2022/05/08 05:19:28;;;;;;;20.67;12.38;;;358.70;2329.60;;;;;;4896290;29;20113;-82
2022/05/08 05:21:54;;;;;;;16.67;11.68;;;358.50;2329.60;;;;;;4897554;29;20032;-80
2022/05/08 05:24:20;;;;;;;14.45;9.05;;;358.50;2329.60;;;;;;4897181;29;20118;-81
2022/05/08 05:26:49;;;;;;;13.05;8.48;;;358.70;2329.60;;;;;;4897098;29;20028;-80
2022/05/08 05:29:16;;;;;;;13.02;8.13;;;358.80;2329.60;;;;;;4896747;29;20513;-78
2022/05/08 05:31:41;;;;;;;13.88;8.70;;;358.90;2329.60;;;;;;4897143;29;20064;-81
2022/05/08 05:34:14;;;;;;;13.77;11.50;;;359.00;2329.60;;;;;;4896592;29;20031;-84
2022/05/08 05:39:51;;;;;;;15.20;8.10;;;359.10;2329.60;;;;;;4870221;29;20104;-81
2022/05/08 05:42:21;;;;;;;10.30;6.90;;;359.10;2329.60;;;;;;4881560;29;20076;-82
2022/05/08 05:44:48;;;;;;;9.30;7.25;;;359.00;2329.60;;;;;;4878551;29;20029;-81
2022/05/08 05:50:04;;;;;;;10.27;5.72;;;384.00;2329.60;;;;;;4880066;29;20071;-83
2022/05/08 05:52:33;;;;;;;11.98;6.57;;;384.00;2329.60;;;;;;4897120;29;20080;-81
2022/05/08 05:55:19;;;;;;;10.90;8.07;;;384.20;2329.60;;;;;;4895920;29;20028;-81
2022/05/08 05:58:33;;;;;;;12.00;8.98;;;384.30;2329.60;;;;;;4897027;29;20036;-83
2022/05/08 06:00:59;;;;;;;11.70;6.93;;;384.40;2329.60;;;;;;4876445;29;20064;-80
2022/05/08 06:03:25;;;;;;;9.77;6.10;;;384.30;2329.60;;;;;;4896751;29;20032;-81
2022/05/08 06:05:54;;;;;;;8.35;5.50;;;384.70;2329.60;;;;;;4898390;29;20036;-83
2022/05/08 06:08:21;;;;;;;9.38;6.38;;;384.80;2329.60;;;;;;4890337;29;20029;-82
2022/05/08 06:10:48;;;;;;;11.68;6.75;;;384.80;2329.60;;;;;;4862694;29;20433;-82
2022/05/08 06:13:14;;;;;;;13.10;6.22;;;409.80;2355.20;;;;;;4879472;29;20419;-81
2022/05/08 06:15:40;;;;;;;12.63;5.35;;;409.60;2355.20;;;;;;4880199;29;20089;-80
2022/05/08 06:18:06;;;;;;;8.93;5.53;;;409.70;2355.20;;;;;;4880728;29;20024;-83
2022/05/08 06:20:33;;;;;;;9.88;4.85;;;409.70;2355.20;;;;;;4881143;29;20033;-81
2022/05/08 06:23:01;;;;;;;10.82;5.68;;;409.70;2355.20;;;;;;4880399;29;20029;-81
2022/05/08 06:25:29;;;;;;;8.32;5.00;;;410.00;2355.20;;;;;;4881228;29;20032;-82
2022/05/08 06:27:56;;;;;;;9.68;4.30;;;410.30;2355.20;;;;;;4880022;29;20029;-80
2022/05/08 06:30:22;;;;;;;10.10;4.60;;;410.40;2329.60;;;;;;4880965;29;20578;-80
2022/05/08 06:32:48;;;;;;;10.00;4.10;;;410.50;2304.00;;;;;;4880162;29;20108;-82
2022/05/08 06:35:13;;;;;;;9.98;4.22;;;435.30;2252.80;;;;;;4865395;29;20033;-81
2022/05/08 06:37:44;;;;;;;8.07;4.13;;;435.30;2201.60;;;;;;4880321;29;20033;-82
2022/05/08 06:40:11;;;;;;;8.23;4.60;;;435.40;2176.00;;;;;;4881027;29;20546;-81
2022/05/08 06:42:38;;;;;;;8.85;4.85;;;435.60;2201.60;;;;;;4864772;29;20028;-80
2022/05/08 06:45:05;;;;;;;5.95;3.88;;;435.80;2150.40;;;;;;4896971;29;20032;-83
2022/05/08 06:47:30;;;;;;;8.18;4.03;;;435.90;2150.40;;;;;;4883625;29;20025;-81
2022/05/08 06:49:56;;;;;;;10.20;4.20;;;436.10;2124.80;;;;;;4883868;29;20039;-81
2022/05/08 06:52:22;;;;;;;7.32;4.07;;;436.10;2099.20;;;;;;4901438;29;20044;-80
2022/05/08 06:54:48;;;;;;;9.95;3.90;;;460.90;2124.80;;;;;;4898012;29;20102;-80
2022/05/08 06:57:14;;;;;;;6.68;3.97;;;460.90;2099.20;;;;;;4902882;29;20382;-81
2022/05/08 07:02:24;;;;;;;6.93;3.65;;;461.10;2073.60;;;;;;4901354;29;20120;-82
2022/05/08 07:04:50;;;;;;;6.80;4.60;;;461.30;2048.00;;;;;;4900058;29;20482;-79
2022/05/08 07:07:16;;;;;;;7.57;3.60;;;486.50;2048.00;;;;;;4884363;29;20028;-81
2022/05/08 07:09:42;;;;;;;6.65;4.10;;;461.60;2022.40;;;;;;4884097;29;20127;-79
2022/05/08 07:12:08;;;;;;;6.55;3.90;;;461.70;2022.40;;;;;;4894018;29;20194;-81
2022/05/08 07:14:34;;;;;;;7.28;3.85;;;486.40;1996.80;;;;;;4899343;29;20033;-79
2022/05/08 07:17:00;;;;;;;6.18;4.07;;;486.40;2022.40;;;;;;4899233;29;20075;-81
2022/05/08 07:19:26;;;;;;;6.82;4.18;;;486.50;1971.20;;;;;;4899080;29;20483;-80
2022/05/08 07:21:52;;;;;;;9.32;4.47;;;486.70;1971.20;;;;;;4899539;29;20085;-79
2022/05/08 07:24:17;;;;;;;9.52;4.43;;;486.70;1996.80;;;;;;4898515;29;20021;-81
2022/05/08 07:26:45;;;;;;;12.40;4.78;;;486.80;1971.20;;;;;;4884005;29;20069;-80
2022/05/08 07:29:11;;;;;;;10.68;4.60;;;486.90;1996.80;;;;;;4864831;29;20641;-80
2022/05/08 07:31:38;;;;;;;7.45;4.63;;;487.10;1971.20;;;;;;4864799;29;20043;-77
2022/05/08 07:36:48;;;;;;;9.82;4.60;;;487.30;1971.20;;;;;;4885101;29;20501;-78
2022/05/08 07:39:14;;;;;;;11.48;5.10;;;512.10;1945.60;;;;;;4864289;29;20115;-79
2022/05/08 07:41:39;;;;;;;10.02;4.53;;;512.00;1945.60;;;;;;4864611;29;20133;-76
2022/05/08 07:44:05;;;;;;;9.23;5.53;;;512.30;1945.60;;;;;;4865361;29;20120;-78
2022/05/08 07:46:31;;;;;;;20.92;12.15;;;512.40;1920.00;;;;;;4864461;29;20062;-78
2022/05/08 07:48:57;;;;;;;15.00;7.47;;;512.60;1920.00;;;;;;4864671;29;20029;-78
2022/05/08 07:51:23;;;;;;;8.63;4.90;;;512.60;1920.00;;;;;;4864576;29;20037;-78
2022/05/08 07:53:48;;;;;;;7.68;5.25;;;512.50;1894.40;;;;;;4864556;29;20063;-78
2022/05/08 07:56:14;;;;;;;10.02;6.20;;;512.50;1945.60;;;;;;4863681;29;20033;-77
2022/05/08 07:58:40;;;;;;;8.80;5.40;;;512.70;1920.00;;;;;;4864760;29;20444;-77
2022/05/08 08:01:06;;;;;;;11.38;5.60;;;512.90;1894.40;;;;;;4864403;29;20025;-77
2022/05/08 08:03:32;;;;;;;10.32;5.55;;;537.60;1920.00;;;;;;4881361;29;20021;-76
2022/05/08 08:05:59;;;;;;;9.85;5.10;;;537.70;1894.40;;;;;;4864376;29;20051;-79
2022/05/08 08:08:25;;;;;;;9.23;5.45;;;537.80;1894.40;;;;;;4868973;29;20500;-78
2022/05/08 08:10:59;;;;;;;10.15;6.55;;;538.00;1894.40;;;;;;4883127;29;20029;-79
2022/05/08 08:13:30;;;;;;;8.32;5.30;;;538.20;1868.80;;;;;;4882001;29;20058;-78
2022/05/08 08:15:57;;;;;;;9.60;4.97;;;538.20;1843.20;;;;;;4883215;29;20082;-77
2022/05/08 08:18:23;;;;;;;6.65;4.72;;;538.40;1843.20;;;;;;4883020;29;20029;-76
2022/05/08 08:20:49;;;;;;;7.05;4.90;;;538.50;1843.20;;;;;;4898265;29;20387;-77
2022/05/08 08:23:14;;;;;;;9.55;5.47;;;538.50;1843.20;;;;;;4898063;29;20039;-77
2022/05/08 08:25:40;;;;;;;9.15;5.40;;;563.30;1843.20;;;;;;4881606;29;20468;-78
2022/05/08 08:28:06;;;;;;;10.10;4.80;;;563.40;1843.20;;;;;;4898135;29;20052;-78
2022/05/08 08:30:33;;;;;;;8.02;5.30;;;563.70;1843.20;;;;;;4882541;29;20040;-77
2022/05/08 08:33:00;;;;;;;7.75;4.85;;;563.70;1817.60;;;;;;4898347;29;20028;-78
2022/05/08 08:35:26;;;;;;;8.73;5.07;;;563.70;1792.00;;;;;;4897003;29;20039;-80
2022/05/08 08:37:52;;;;;;;8.48;4.78;;;563.70;1792.00;;;;;;4898246;29;20033;-79
2022/05/08 08:40:18;;;;;;;8.05;5.43;;;563.80;1792.00;;;;;;4897517;29;20028;-78
2022/05/08 08:42:44;;;;;;;8.77;5.10;;;564.00;1766.40;;;;;;4897829;29;20038;-80
2022/05/08 08:48:02;;;;;;;8.73;5.57;;;588.90;1766.40;;;;;;4898698;29;20070;-80
2022/05/08 08:50:29;;;;;;;10.05;4.53;;;589.00;1740.80;;;;;;4898160;29;20428;-79
2022/05/08 08:52:57;;;;;;;14.00;6.30;;;588.90;1740.80;;;;;;4897925;29;20032;-79
2022/05/08 08:55:23;;;;;;;21.63;6.57;;;589.00;1740.80;;;;;;4897989;29;20033;-83
2022/05/08 08:57:50;;;;;;;14.70;5.70;;;589.30;1740.80;;;;;;4899242;29;20036;-82
2022/05/08 09:00:16;;;;;;;7.88;5.20;;;589.60;1740.80;;;;;;4897836;29;20127;-83
2022/05/08 09:02:42;;;;;;;8.27;4.93;;;589.60;1715.20;;;;;;4882482;29;20029;-81
2022/05/08 09:05:09;;;;;;;13.65;4.88;;;589.60;1664.00;;;;;;4897874;29;20076;-82
2022/05/08 09:07:43;;;;;;;8.90;4.28;;;589.70;1689.60;;;;;;4897179;29;20084;-80
2022/05/08 09:10:27;;;;;;;11.95;6.32;;;589.70;1664.00;;;;;;4897070;29;20029;-83
2022/05/08 09:12:53;;;;;;;8.23;6.05;;;589.70;1689.60;;;;;;4896574;29;20053;-83
2022/05/08 09:15:21;;;;;;;20.00;13.77;;;589.50;1664.00;;;;;;4882042;29;20104;-84
2022/05/08 09:17:52;;;;;;;12.43;6.75;;;614.40;1689.60;;;;;;4898094;29;20064;-81
2022/05/08 09:20:34;;;;;;;7.60;5.25;;;614.70;1664.00;;;;;;4897231;29;20035;-80
2022/05/08 09:23:21;;;;;;;10.73;5.30;;;614.90;1638.40;;;;;;4898610;29;20432;-80
2022/05/08 09:26:02;;;;;;;11.15;7.20;;;615.00;1612.80;;;;;;4894567;29;20556;-80
2022/05/08 09:28:37;;;;;;;17.95;6.10;;;615.20;1587.20;;;;;;4863612;29;20033;-82
2022/05/08 09:31:08;;;;;;;10.95;6.15;;;614.70;1612.80;;;;;;4897127;29;20036;-82
2022/05/08 09:33:44;;;;;;;8.20;5.53;;;615.10;1638.40;;;;;;4897576;29;20029;-83
2022/05/08 09:36:11;;;;;;;11.88;4.88;;;615.20;1612.80;;;;;;4895744;29;20050;-82
2022/05/08 09:38:50;;;;;;;10.43;5.22;;;615.00;1561.60;;;;;;4863482;29;20112;-83
2022/05/08 09:41:27;;;;;;;8.50;5.40;;;614.80;1587.20;;;;;;4863191;29;20109;-82
2022/05/08 09:43:54;;;;;;;10.35;6.65;;;614.60;1587.20;;;;;;4863170;29;20493;-83
2022/05/08 09:46:21;;;;;;;10.73;4.32;;;614.60;1587.20;;;;;;4869440;29;20555;-82
2022/05/08 09:48:47;;;;;;;8.25;4.35;;;614.40;1561.60;;;;;;4896435;29;20069;-80
2022/05/08 09:51:17;;;;;;;11.90;9.88;;;614.50;1587.20;;;;;;4896034;29;20280;-79
2022/05/08 09:53:45;;;;;;;11.70;6.22;;;614.80;1587.20;;;;;;4896934;29;20075;-79
2022/05/08 09:56:13;;;;;;;8.75;5.13;;;614.80;1536.00;;;;;;4896969;29;20487;-81
2022/05/08 09:58:43;;;;;;;8.38;5.18;;;615.10;1561.60;;;;;;4897186;29;20539;-81
2022/05/08 10:01:09;;;;;;;7.53;5.20;;;640.00;1536.00;;;;;;4896929;29;20025;-81
2022/05/08 10:03:36;;;;;;;9.93;4.75;;;640.20;1510.40;;;;;;4896646;29;20052;-82
2022/05/08 10:06:02;;;;;;;7.70;4.35;;;615.20;1510.40;;;;;;4897152;29;20039;-80
2022/05/08 10:08:33;;;;;;;9.15;4.68;;;640.40;1510.40;;;;;;4881216;29;20043;-81
2022/05/08 10:13:54;;;;;;;7.30;4.00;;;640.70;1536.00;;;;;;4897977;29;20113;-82
2022/05/08 10:16:57;;;;;;;14.15;4.88;;;665.60;1484.80;;;;;;4897504;29;20081;-82
2022/05/08 10:19:26;;;;;;;7.88;3.63;;;665.90;1484.80;;;;;;4904244;29;20500;-82
2022/05/08 10:24:27;;;;;;;6.97;4.37;;;666.00;1459.20;;;;;;4902506;29;20041;-81
2022/05/08 10:27:17;;;;;;;9.52;4.18;;;666.00;1459.20;;;;;;4884446;29;20378;-80
2022/05/08 10:30:03;;;;;;;7.10;3.70;;;665.60;1459.20;;;;;;4885124;29;20036;-82
2022/05/08 10:32:30;;;;;;;7.47;3.80;;;665.70;1510.40;;;;;;4892313;29;20028;-81
2022/05/08 10:35:12;;;;;;;11.00;4.97;;;665.90;1510.40;;;;;;4908582;29;20076;-78
2022/05/08 10:37:42;;;;;;;;;;;666.10;1510.40;;;;;;4918724;29;20474;-79
2022/05/08 10:40:23;;;;;;;9.93;4.00;;;666.30;1484.80;;;;;;4902818;29;19963;-79
2022/05/08 10:42:48;;;;;;;7.10;4.75;;;640.90;1433.60;;;;;;4902585;29;20032;-79
2022/05/08 10:45:33;;;;;;;7.68;4.80;;;666.00;1484.80;;;;;;4903241;29;20129;-80
2022/05/08 10:48:04;;;;;;;13.43;4.93;;;666.30;1484.80;;;;;;4919579;29;20043;-80
2022/05/08 10:50:30;;;;;;;7.55;4.50;;;691.20;1484.80;;;;;;4903225;29;20368;-80
2022/05/08 10:52:57;;;;;;;8.18;5.38;;;691.20;1433.60;;;;;;4911168;29;20032;-80
2022/05/08 10:55:23;;;;;;;8.32;4.38;;;666.40;1459.20;;;;;;4898652;29;20029;-79
2022/05/08 10:57:51;;;;;;;8.88;4.95;;;666.50;1484.80;;;;;;4898659;29;20474;-82
2022/05/08 11:00:19;;;;;;;10.15;6.63;;;666.50;1484.80;;;;;;4898063;29;20028;-79
2022/05/08 11:02:55;;;;;;;9.65;4.75;;;691.30;1484.80;;;;;;4898242;29;20080;-79
2022/05/08 11:05:25;;;;;;;9.93;4.30;;;691.60;1484.80;;;;;;4899280;29;20040;-80
2022/05/08 11:08:00;;;;;;;9.13;4.70;;;691.50;1459.20;;;;;;4894569;29;20035;-80
2022/05/08 11:10:30;;;;;;;10.93;5.88;;;691.50;1459.20;;;;;;4897782;29;20391;-80
2022/05/08 11:13:12;;;;;;;7.82;4.68;;;691.70;1459.20;;;;;;4888097;29;20056;-79
2022/05/08 11:15:48;;;;;;;8.18;5.28;;;691.80;1459.20;;;;;;4878448;29;20056;-81
2022/05/08 11:18:15;;;;;;;6.70;4.22;;;691.90;1459.20;;;;;;4899289;29;20041;-80
2022/05/08 11:20:57;;;;;;;8.60;4.80;;;691.50;1459.20;;;;;;4898628;29;20024;-79
2022/05/08 11:23:25;;;;;;;9.17;4.30;;;691.60;1484.80;;;;;;4898123;29;20060;-80
2022/05/08 11:25:53;;;;;;;8.43;4.22;;;691.60;1484.80;;;;;;4898754;29;20039;-79
2022/05/08 11:28:21;;;;;;;8.07;4.20;;;691.70;1459.20;;;;;;4899567;29;20080;-79
2022/05/08 11:30:48;;;;;;;13.13;4.30;;;692.00;1484.80;;;;;;4882400;29;20069;-79
2022/05/08 11:36:08;;;;;;;5.90;4.15;;;716.90;1484.80;;;;;;4899273;29;20570;-78
2022/05/08 11:38:41;;;;;;;11.88;5.45;;;717.10;1510.40;;;;;;4898292;29;20036;-79
2022/05/08 11:41:15;;;;;;;10.10;5.57;;;717.10;1484.80;;;;;;4882288;29;20024;-78
2022/05/08 11:43:44;;;;;;;7.25;3.95;;;717.40;1459.20;;;;;;4897488;29;20064;-81
2022/05/08 11:46:15;;;;;;;7.47;3.95;;;717.50;1459.20;;;;;;4882231;29;20613;-80
2022/05/08 11:48:46;;;;;;;7.73;3.93;;;742.40;1484.80;;;;;;4898146;29;20033;-78
2022/05/08 11:51:18;;;;;;;10.17;4.63;;;742.50;1459.20;;;;;;4898015;29;20649;-77
2022/05/08 11:53:45;;;;;;;;;;;742.40;1433.60;;;;;;4898754;29;20391;-78
2022/05/08 11:56:24;;;;;;;7.75;4.18;;;742.40;1408.00;;;;;;4899845;29;19914;-79
2022/05/08 11:59:17;;;;;;;11.90;5.18;;;717.30;1433.60;;;;;;4898096;29;20080;-78
2022/05/08 12:01:54;;;;;;;9.10;4.95;;;717.70;1433.60;;;;;;4887278;29;20045;-79
2022/05/08 12:04:48;;;;;;;8.95;4.93;;;742.50;1433.60;;;;;;4884454;29;20033;-78
2022/05/08 12:07:14;;;;;;;8.30;4.07;;;742.50;1433.60;;;;;;4860400;29;20045;-78
2022/05/08 12:09:47;;;;;;;7.15;4.80;;;742.90;1433.60;;;;;;4880058;29;20041;-78
2022/05/08 12:12:27;;;;;;;7.72;4.30;;;742.60;1408.00;;;;;;4890426;29;20131;-77
2022/05/08 12:15:03;;;;;;;6.63;3.90;;;742.50;1408.00;;;;;;4881771;29;20040;-78
2022/05/08 12:17:49;;;;;;;5.90;3.97;;;742.60;1408.00;;;;;;4898181;29;20057;-78
2022/05/08 12:20:35;;;;;;;11.35;4.35;;;742.80;1408.00;;;;;;4894020;29;20035;-79
2022/05/08 12:23:03;;;;;;;10.50;4.32;;;742.90;1408.00;;;;;;4919437;29;20355;-78
2022/05/08 12:25:30;;;;;;;9.77;5.43;;;742.90;1433.60;;;;;;4922090;29;20024;-79
2022/05/08 12:27:56;;;;;;;9.35;5.85;;;743.20;1459.20;;;;;;4916799;29;20241;-78
2022/05/08 12:30:22;;;;;;;7.68;3.95;;;742.90;1433.60;;;;;;4894559;29;20098;-77
2022/05/08 12:32:48;;;;;;;6.57;3.58;;;742.80;1408.00;;;;;;4892064;29;20467;-79
2022/05/08 12:35:14;;;;;;;7.65;3.88;;;742.80;1408.00;;;;;;4881628;29;20060;-79
2022/05/08 12:37:40;;;;;;;7.43;4.00;;;742.90;1408.00;;;;;;4881471;29;20035;-78
2022/05/08 12:40:07;;;;;;;5.80;4.10;;;743.00;1433.60;;;;;;4882657;29;20383;-78
2022/05/08 12:42:33;;;;;;;8.85;3.90;;;743.00;1408.00;;;;;;4901897;29;20513;-78
2022/05/08 12:44:59;;;;;;;8.60;4.10;;;743.10;1382.40;;;;;;4901425;29;20029;-80
2022/05/08 12:47:25;;;;;;;8.07;3.95;;;742.60;1356.80;;;;;;4900918;29;20035;-77
2022/05/08 12:49:53;;;;;;;7.18;5.18;;;742.80;1382.40;;;;;;4900836;29;20115;-77
2022/05/08 12:52:19;;;;;;;8.43;5.43;;;742.90;1356.80;;;;;;4917936;29;20102;-81